Anch, Alaska
Current Conditions -  °F | °C
As of 5:58 AM on Thursday 30 Oct 2014 (Local Time) from PAED Reporting Station
Clear Clear  
Wind Chill: -7°   Ceiling: Unl
Heat Index: -7°   Visibility: 10mi
Dew Point: -9°   Wind: 0mph
Humidity: 87%   Direction: NA
Pressure: 29.62"   Gusts: NA
Location:  61.2265°N, 149.62°W
Report Text: PAED 301358Z AUTO 00000KT 10SM CLR M07/M09 A2962 RMK AO2 SLP029 T10731092 $
Loading
Personal Weather Stations






























Interactive Weather Map
Tropical Storm Tracking
New forecast layout! Learn more

10-Day Weather Forecast

Advertisements
Track Severe Weather on mobile